Time;durP1;ratioP1;P1;durP2;ratioP2;P2;SDS_P1;SDS_P2;PMS_P1;PMS_P2;Temp;Humidity;BMP_temperature;BMP_pressure;BME280_temperature;BME280_humidity;BME280_pressure;Samples;Min_cycle;Max_cycle;Signal;HPM_P1;HPM_P2
2022/02/11 00:07:59;;;;;;;;;;;;;;;22.45;25.88;95983.75;10410373;28;1864;-73
2022/02/11 00:12:59;;;;;;;;;;;;;;;22.43;26.04;95977.97;10396480;28;1892;-72
2022/02/11 00:17:59;;;;;;;;;;;;;;;22.44;26.22;95968.97;10399031;28;1973;-73
2022/02/11 00:23:00;;;;;;;;;;;;;;;22.43;25.86;95966.63;10416977;28;1801;-73
2022/02/11 00:33:28;;;;;;;;;;;;;;;22.45;25.62;95964.47;10396959;28;1853;-73
2022/02/11 01:04:16;;;;;;;;;;;;;;;22.40;25.29;95938.91;10412005;28;1833;-71
2022/02/11 01:09:16;;;;;;;;;;;;;;;22.38;24.92;95927.81;10396248;28;1951;-72
2022/02/11 01:14:18;;;;;;;;;;;;;;;22.40;25.93;95938.91;10382239;28;2085;-72
2022/02/11 01:19:36;;;;;;;;;;;;;;;22.38;25.29;95935.75;10419065;28;2000;-73
2022/02/11 01:25:32;;;;;;;;;;;;;;;22.37;26.52;95920.97;10411339;28;2453;-71
2022/02/11 04:55:51;;;;;;;;;;;;;;;22.25;25.59;95886.25;10401186;28;1968;-38
2022/02/11 05:00:18;;;;;;;;;;;;;;;22.25;25.58;95880.19;10380721;28;1865;-39
2022/02/11 05:05:18;;;;;;;;;;;;;;;22.25;25.57;95891.53;10398783;28;2158;-42
2022/02/11 05:10:19;;;;;;;;;;;;;;;22.24;25.63;95892.59;10400703;28;1948;-40
2022/02/11 05:15:22;;;;;;;;;;;;;;;22.25;25.50;95902.09;10415401;28;1982;-41
2022/02/11 05:20:23;;;;;;;;;;;;;;;22.25;25.73;95896.03;10396695;28;2031;-47
2022/02/11 05:25:23;;;;;;;;;;;;;;;22.24;25.72;95911.06;10415507;28;1896;-41
2022/02/11 05:30:25;;;;;;;;;;;;;;;22.25;25.49;95917.16;10398325;28;1885;-41
2022/02/11 05:35:26;;;;;;;;;;;;;;;22.25;26.34;95931.16;10407664;28;1981;-43
2022/02/11 05:40:27;;;;;;;;;;;;;;;22.23;25.56;95930.66;10421565;28;1927;-43
2022/02/11 05:45:27;;;;;;;;;;;;;;;22.23;25.46;95951.78;10404737;28;1966;-43
2022/02/11 05:50:29;;;;;;;;;;;;;;;22.26;25.76;95966.25;10408515;28;1896;-39
2022/02/11 05:55:32;;;;;;;;;;;;;;;22.30;25.88;95980.47;10407518;28;1970;-44
2022/02/11 06:00:32;;;;;;;;;;;;;;;22.28;25.77;95993.16;10408280;28;1964;-42
2022/02/11 06:05:33;;;;;;;;;;;;;;;22.28;25.83;95993.97;10407525;28;1986;-39
2022/02/11 06:10:34;;;;;;;;;;;;;;;22.27;25.79;96005.59;10405091;28;2108;-40
2022/02/11 06:15:35;;;;;;;;;;;;;;;22.27;26.17;96016.16;10389532;28;1967;-39
2022/02/11 06:20:36;;;;;;;;;;;;;;;22.25;26.06;96022.78;10407931;28;2055;-39
2022/02/11 06:25:36;;;;;;;;;;;;;;;22.23;25.37;96041.56;10406919;28;1940;-39
2022/02/11 06:30:37;;;;;;;;;;;;;;;22.31;25.70;96059.44;10388692;28;1924;-39
2022/02/11 06:35:41;;;;;;;;;;;;;;;22.25;26.33;96065.81;10418619;28;1960;-39
2022/02/11 06:40:42;;;;;;;;;;;;;;;22.31;27.15;96077.91;10403354;28;1920;-41
2022/02/11 06:45:43;;;;;;;;;;;;;;;22.32;26.37;96092.69;10402124;28;1944;-40
2022/02/11 06:50:46;;;;;;;;;;;;;;;22.34;26.41;96109.03;10404094;28;2016;-44
2022/02/11 06:55:46;;;;;;;;;;;;;;;22.43;26.93;96133.81;10403404;28;2276;-41
2022/02/11 07:00:47;;;;;;;;;;;;;;;22.39;27.21;96145.22;10405287;28;1996;-42
2022/02/11 07:05:47;;;;;;;;;;;;;;;22.32;26.12;96166.63;10406267;28;1884;-39
2022/02/11 07:10:48;;;;;;;;;;;;;;;22.29;26.46;96183.06;10420580;28;1921;-39
2022/02/11 07:15:48;;;;;;;;;;;;;;;22.30;26.32;96203.09;10405851;28;1905;-38
2022/02/11 07:20:49;;;;;;;;;;;;;;;22.28;26.06;96213.16;10404441;28;2015;-41
2022/02/11 07:25:50;;;;;;;;;;;;;;;22.27;25.93;96224.78;10406246;28;1952;-41
2022/02/11 07:30:51;;;;;;;;;;;;;;;22.27;26.31;96240.63;10402913;28;1859;-42
2022/02/11 07:35:52;;;;;;;;;;;;;;;22.25;25.50;96255.97;10400423;28;1973;-43
2022/02/11 07:40:52;;;;;;;;;;;;;;;22.27;25.77;96272.31;10400551;28;1971;-40
2022/02/11 07:45:53;;;;;;;;;;;;;;;22.27;25.95;96285.53;10401796;28;1940;-45
2022/02/11 07:50:55;;;;;;;;;;;;;;;22.32;27.33;96301.34;10415094;28;1964;-46
2022/02/11 07:55:55;;;;;;;;;;;;;;;22.28;27.36;96310.88;10394369;28;1984;-45
2022/02/11 08:00:57;;;;;;;;;;;;;;;22.26;27.49;96336.75;10401121;28;1963;-44
2022/02/11 08:05:58;;;;;;;;;;;;;;;22.25;27.52;96350.25;10398510;28;1856;-42
2022/02/11 08:10:58;;;;;;;;;;;;;;;22.23;27.58;96374.28;10412922;28;2079;-40
2022/02/11 08:15:59;;;;;;;;;;;;;;;22.20;27.71;96401.22;10400638;28;1959;-41
2022/02/11 08:20:59;;;;;;;;;;;;;;;22.20;27.23;96416.25;10399006;28;1919;-42
2022/02/11 08:25:59;;;;;;;;;;;;;;;22.20;27.71;96426.81;10398188;28;1885;-44
2022/02/11 08:31:00;;;;;;;;;;;;;;;22.20;27.49;96458.50;10397149;28;1984;-45
2022/02/11 08:36:01;;;;;;;;;;;;;;;22.17;26.93;96456.41;10397503;28;1973;-42
2022/02/11 08:41:02;;;;;;;;;;;;;;;22.17;27.17;96485.47;10400545;28;1876;-44
2022/02/11 08:46:03;;;;;;;;;;;;;;;22.15;26.86;96517.44;10409743;28;2129;-42
2022/02/11 08:51:03;;;;;;;;;;;;;;;22.14;27.05;96513.19;10397300;28;1979;-46
2022/02/11 08:56:06;;;;;;;;;;;;;;;22.14;26.99;96523.75;10410412;28;2034;-45
2022/02/11 09:01:06;;;;;;;;;;;;;;;22.16;27.20;96537.47;10397004;28;2114;-43
2022/02/11 09:06:06;;;;;;;;;;;;;;;22.14;27.29;96536.94;10397091;28;1932;-42
2022/02/11 09:11:13;;;;;;;;;;;;;;;22.14;26.71;96550.16;10379293;28;2074;-44
2022/02/11 09:16:13;;;;;;;;;;;;;;;22.16;26.70;96561.25;10393899;28;2075;-45
2022/02/11 09:21:15;;;;;;;;;;;;;;;22.16;26.90;96563.88;10397608;28;1983;-46
2022/02/11 09:26:15;;;;;;;;;;;;;;;22.16;26.50;96579.72;10397126;28;1920;-41
2022/02/11 09:31:15;;;;;;;;;;;;;;;22.15;26.48;96594.00;10408242;28;2291;-41
2022/02/11 09:36:19;;;;;;;;;;;;;;;22.16;26.47;96600.84;10394844;28;1914;-47
2022/02/11 09:41:19;;;;;;;;;;;;;;;22.17;26.61;96605.09;10395705;28;1881;-44
2022/02/11 09:46:19;;;;;;;;;;;;;;;22.14;26.23;96616.16;10392674;28;1955;-40
2022/02/11 09:51:20;;;;;;;;;;;;;;;22.16;26.24;96632.53;10390074;28;2132;-40
2022/02/11 09:56:20;;;;;;;;;;;;;;;22.18;26.84;96633.06;10393563;28;2013;-47
2022/02/11 10:01:20;;;;;;;;;;;;;;;22.22;26.61;96639.41;10511644;22;1958;-59
2022/02/11 10:06:24;;;;;;;;;;;;;;;22.19;26.79;96657.63;10519885;28;1875;-58
2022/02/11 10:11:24;;;;;;;;;;;;;;;22.23;26.41;96662.16;10477736;28;2391;-58
2022/02/11 10:16:25;;;;;;;;;;;;;;;22.23;26.90;96669.28;10496219;28;1918;-59
2022/02/11 10:21:30;;;;;;;;;;;;;;;22.24;26.72;96684.84;10493848;28;1837;-58
2022/02/11 10:26:30;;;;;;;;;;;;;;;22.24;26.63;96687.47;10487814;28;1776;-59
2022/02/11 10:31:34;;;;;;;;;;;;;;;22.23;26.49;96691.19;10494561;28;1820;-59
2022/02/11 10:36:36;;;;;;;;;;;;;;;22.23;26.22;96695.69;10493951;28;1938;-58
2022/02/11 10:41:49;;;;;;;;;;;;;;;22.28;27.13;96709.69;10494063;28;1820;-59
2022/02/11 10:46:50;;;;;;;;;;;;;;;22.32;26.78;96710.75;10487585;28;2181;-59
2022/02/11 10:51:50;;;;;;;;;;;;;;;22.40;27.22;96702.31;10488586;28;1842;-58
2022/02/11 10:56:51;;;;;;;;;;;;;;;22.43;27.17;96704.44;10483382;28;1914;-58
2022/02/11 11:01:56;;;;;;;;;;;;;;;22.42;27.09;96712.63;10487091;28;1805;-59
2022/02/11 11:06:57;;;;;;;;;;;;;;;22.41;27.24;96718.94;10488572;28;1804;-59
2022/02/11 11:12:00;;;;;;;;;;;;;;;22.27;26.29;96712.59;10490218;28;1859;-58
2022/02/11 11:17:01;;;;;;;;;;;;;;;22.16;26.40;96714.41;10490040;28;1986;-58
2022/02/11 11:22:13;;;;;;;;;;;;;;;22.12;26.32;96709.91;10491073;28;1952;-58
2022/02/11 11:27:33;;;;;;;;;;;;;;;22.12;26.70;96710.69;10482275;28;1784;-57
2022/02/11 11:32:34;;;;;;;;;;;;;;;22.27;26.64;96702.81;10492264;28;1854;-59
2022/02/11 11:37:34;;;;;;;;;;;;;;;22.33;26.92;96698.34;10485191;28;1941;-59
2022/02/11 11:42:34;;;;;;;;;;;;;;;22.38;26.71;96703.63;10487244;28;1944;-58
2022/02/11 11:47:41;;;;;;;;;;;;;;;22.46;26.92;96713.69;10489668;28;1872;-57
2022/02/11 11:52:42;;;;;;;;;;;;;;;22.52;27.39;96708.13;10495519;28;1824;-57
2022/02/11 11:57:43;;;;;;;;;;;;;;;22.47;27.49;96702.84;10499464;28;1980;-58
2022/02/11 12:02:48;;;;;;;;;;;;;;;22.53;27.18;96701.00;10490250;28;1792;-57
2022/02/11 12:07:48;;;;;;;;;;;;;;;22.55;26.89;96697.03;10492718;28;1769;-59
2022/02/11 12:12:49;;;;;;;;;;;;;;;22.72;26.98;96698.66;10495670;28;1883;-58
2022/02/11 12:17:53;;;;;;;;;;;;;;;22.75;27.27;96704.19;10475615;28;1917;-58
2022/02/11 12:27:20;;;;;;;;;;;;;;;22.74;26.79;96712.41;10488325;28;1848;-59
2022/02/11 12:28:14;;;;;;;;;;;;;;;22.75;26.92;96720.06;10476998;28;1967;-58
2022/02/11 12:33:15;;;;;;;;;;;;;;;22.76;26.81;96715.56;10503319;28;1855;-59
2022/02/11 12:38:15;;;;;;;;;;;;;;;22.72;26.94;96723.25;10493172;28;1969;-58
2022/02/11 12:43:16;;;;;;;;;;;;;;;22.75;26.73;96724.56;10497842;28;1835;-61
2022/02/11 12:48:17;;;;;;;;;;;;;;;22.71;26.74;96723.53;10478613;28;1859;-57
2022/02/11 12:53:18;;;;;;;;;;;;;;;22.67;26.78;96729.31;10490963;28;1819;-60
2022/02/11 12:58:20;;;;;;;;;;;;;;;22.56;27.06;96721.63;10499555;28;1918;-60
2022/02/11 13:03:20;;;;;;;;;;;;;;;22.48;26.96;96717.63;10492199;28;1792;-60
2022/02/11 13:08:21;;;;;;;;;;;;;;;22.49;27.00;96718.44;10489692;28;1785;-60
2022/02/11 13:13:22;;;;;;;;;;;;;;;22.55;27.32;96714.75;10493541;28;1819;-58
2022/02/11 13:18:23;;;;;;;;;;;;;;;22.45;27.14;96728.75;10495298;28;1906;-57
2022/02/11 13:23:24;;;;;;;;;;;;;;;22.40;26.98;96728.72;10496850;28;1858;-61
2022/02/11 13:28:27;;;;;;;;;;;;;;;22.37;27.12;96737.19;10490751;28;2255;-58
2022/02/11 13:33:27;;;;;;;;;;;;;;;22.31;27.11;96740.88;10499374;28;1921;-60
2022/02/11 13:38:28;;;;;;;;;;;;;;;22.31;26.84;96740.88;10496250;28;1914;-60
2022/02/11 13:43:44;;;;;;;;;;;;;;;22.28;26.36;96741.38;10492071;28;1693;-56
2022/02/11 13:48:52;;;;;;;;;;;;;;;22.31;27.11;96751.44;10488301;28;1924;-60
2022/02/11 13:53:52;;;;;;;;;;;;;;;22.31;26.86;96755.91;10490925;28;1914;-58
2022/02/11 13:59:01;;;;;;;;;;;;;;;22.28;27.05;96759.88;10501005;28;1906;-56
2022/02/11 14:04:03;;;;;;;;;;;;;;;22.25;26.95;96762.25;10501807;28;1901;-61
2022/02/11 14:09:07;;;;;;;;;;;;;;;22.21;26.63;96769.91;10483165;28;1824;-61
2022/02/11 14:14:09;;;;;;;;;;;;;;;22.18;26.60;96773.03;10498421;28;1733;-58
2022/02/11 14:19:09;;;;;;;;;;;;;;;22.16;26.44;96775.16;10489533;28;1910;-61
2022/02/11 14:24:09;;;;;;;;;;;;;;;22.16;26.51;96784.91;10505095;28;1883;-61
2022/02/11 14:29:11;;;;;;;;;;;;;;;22.18;26.50;96783.59;10492450;28;1800;-61
2022/02/11 14:34:12;;;;;;;;;;;;;;;22.19;26.68;96794.97;10492749;28;1844;-61
2022/02/11 14:39:17;;;;;;;;;;;;;;;22.20;25.95;96799.97;10489186;28;1975;-60
2022/02/11 14:44:27;;;;;;;;;;;;;;;22.15;26.20;96794.69;10498890;28;1916;-61
2022/02/11 14:49:28;;;;;;;;;;;;;;;22.17;26.48;96813.72;10480844;28;1806;-61
2022/02/11 14:54:30;;;;;;;;;;;;;;;22.18;26.30;96810.00;10499489;28;1823;-59
2022/02/11 14:59:31;;;;;;;;;;;;;;;22.20;26.23;96818.47;10500414;28;1927;-58
2022/02/11 15:04:31;;;;;;;;;;;;;;;22.19;26.25;96811.63;10492629;28;1797;-58
2022/02/11 15:09:31;;;;;;;;;;;;;;;22.22;25.84;96812.91;10501152;28;1811;-59
2022/02/11 15:14:32;;;;;;;;;;;;;;;22.19;25.66;96824.03;10499236;28;1816;-57
2022/02/11 15:19:34;;;;;;;;;;;;;;;22.19;26.19;96827.47;10498249;28;1922;-58
2022/02/11 15:24:34;;;;;;;;;;;;;;;22.23;26.59;96833.00;10489512;28;1874;-57
2022/02/11 15:29:35;;;;;;;;;;;;;;;22.25;25.98;96834.34;10486053;28;1828;-60
2022/02/11 15:34:35;;;;;;;;;;;;;;;22.25;25.98;96833.56;10493502;28;1801;-57
2022/02/11 15:39:36;;;;;;;;;;;;;;;22.21;25.67;96835.13;10493878;28;2059;-58
2022/02/11 15:44:36;;;;;;;;;;;;;;;22.25;26.41;96833.56;10492407;28;1905;-58
2022/02/11 15:49:37;;;;;;;;;;;;;;;22.21;26.67;96840.41;10498912;28;1844;-58
2022/02/11 15:54:38;;;;;;;;;;;;;;;22.27;26.85;96834.88;10492738;28;1911;-58
2022/02/11 15:59:38;;;;;;;;;;;;;;;22.23;26.18;96841.75;10487259;28;1898;-59
2022/02/11 16:04:38;;;;;;;;;;;;;;;22.22;26.56;96858.63;10491195;22;2674;-50
2022/02/11 16:09:39;;;;;;;;;;;;;;;22.24;26.59;96859.16;10475719;28;1854;-48
2022/02/11 16:14:40;;;;;;;;;;;;;;;22.23;26.38;96860.22;10467469;28;2003;-47
2022/02/11 16:19:41;;;;;;;;;;;;;;;22.24;26.00;96864.44;10470096;28;1971;-49
2022/02/11 16:24:43;;;;;;;;;;;;;;;22.23;25.87;96868.16;10477725;28;1367;-46
2022/02/11 16:29:43;;;;;;;;;;;;;;;22.16;25.89;96870.22;10457109;28;1755;-53
2022/02/11 16:34:44;;;;;;;;;;;;;;;22.30;26.45;96870.53;10447783;28;1537;-51
2022/02/11 16:39:44;;;;;;;;;;;;;;;22.35;26.50;96878.50;10468898;28;1914;-46
2022/02/11 16:44:44;;;;;;;;;;;;;;;22.44;26.45;96882.25;10458504;28;1415;-49
2022/02/11 16:49:45;;;;;;;;;;;;;;;22.47;26.59;96884.34;10450736;28;1764;-45
2022/02/11 16:54:45;;;;;;;;;;;;;;;22.31;25.01;96899.34;10461283;28;1977;-48
2022/02/11 16:59:52;;;;;;;;;;;;;;;22.27;24.82;96906.19;10458753;28;1898;-48
2022/02/11 17:04:53;;;;;;;;;;;;;;;22.26;24.45;96915.16;10472283;28;1336;-46
2022/02/11 17:09:53;;;;;;;;;;;;;;;22.27;24.74;96926.53;10478407;28;1471;-46
2022/02/11 17:14:55;;;;;;;;;;;;;;;22.28;24.50;96925.47;10475644;28;1515;-49
2022/02/11 17:19:55;;;;;;;;;;;;;;;22.29;24.44;96927.88;10454467;28;1977;-48
2022/02/11 17:24:55;;;;;;;;;;;;;;;22.30;24.20;96932.09;10471133;28;1500;-48
2022/02/11 17:29:56;;;;;;;;;;;;;;;22.38;25.09;96936.88;10470274;28;1944;-47
2022/02/11 17:34:57;;;;;;;;;;;;;;;22.41;25.53;96939.03;10467363;28;1363;-47
2022/02/11 17:39:59;;;;;;;;;;;;;;;22.43;25.53;96944.06;10455438;28;1965;-50
2022/02/11 17:45:00;;;;;;;;;;;;;;;22.43;25.46;96952.78;10455683;28;1529;-47
2022/02/11 17:50:00;;;;;;;;;;;;;;;22.43;25.70;96958.06;10476260;28;1465;-46
2022/02/11 17:55:01;;;;;;;;;;;;;;;22.44;25.42;96958.88;10471271;28;2063;-45
2022/02/11 18:00:04;;;;;;;;;;;;;;;22.44;25.73;96961.50;10467054;28;1989;-45
2022/02/11 18:05:05;;;;;;;;;;;;;;;22.43;25.52;96967.81;10470649;28;1484;-46
2022/02/11 18:10:06;;;;;;;;;;;;;;;22.44;25.85;96986.06;10474574;28;1785;-51
2022/02/11 18:15:06;;;;;;;;;;;;;;;22.44;25.97;96988.69;10460797;28;1521;-46
2022/02/11 18:20:07;;;;;;;;;;;;;;;22.43;25.82;97000.34;10472133;28;1975;-51
2022/02/11 18:25:09;;;;;;;;;;;;;;;22.43;25.53;97004.81;10456628;28;1313;-49
2022/02/11 18:30:10;;;;;;;;;;;;;;;22.61;26.17;97023.72;10465874;28;1815;-52
2022/02/11 18:35:10;;;;;;;;;;;;;;;22.97;26.29;97031.84;10470533;28;1766;-49
2022/02/11 18:40:11;;;;;;;;;;;;;;;23.22;25.52;97034.59;10458417;28;1922;-52
2022/02/11 18:45:12;;;;;;;;;;;;;;;23.32;25.40;97035.44;10482601;28;1909;-57
2022/02/11 18:50:12;;;;;;;;;;;;;;;23.42;24.87;97037.31;10483608;28;1757;-55
2022/02/11 18:55:12;;;;;;;;;;;;;;;23.54;25.26;97034.44;10475864;28;1961;-47
2022/02/11 19:00:28;;;;;;;;;;;;;;;23.61;25.48;97054.31;10481130;28;1891;-55
2022/02/11 19:05:33;;;;;;;;;;;;;;;23.70;25.65;97055.38;10483223;28;1873;-55
2022/02/11 19:10:36;;;;;;;;;;;;;;;23.72;24.77;97058.56;10478480;28;1928;-45
2022/02/11 19:15:37;;;;;;;;;;;;;;;23.75;24.88;97066.00;10479228;28;1975;-44
2022/02/11 19:20:38;;;;;;;;;;;;;;;23.82;25.67;97079.75;10479993;28;1880;-51
2022/02/11 19:25:40;;;;;;;;;;;;;;;23.88;25.28;97080.56;10458889;28;1809;-47
2022/02/11 19:30:40;;;;;;;;;;;;;;;23.90;25.48;97097.81;10480292;28;1612;-47
2022/02/11 19:35:41;;;;;;;;;;;;;;;23.89;25.01;97090.91;10461491;28;1909;-61
2022/02/11 19:40:41;;;;;;;;;;;;;;;23.88;24.88;97102.56;10483527;28;1866;-54
2022/02/11 19:45:42;;;;;;;;;;;;;;;23.95;24.89;97110.22;10480275;28;1810;-60
2022/02/11 19:50:43;;;;;;;;;;;;;;;23.94;24.41;97096.22;10481017;28;1840;-58
2022/02/11 19:55:43;;;;;;;;;;;;;;;23.95;24.25;97105.75;10458682;28;1961;-47
2022/02/11 20:00:43;;;;;;;;;;;;;;;23.92;25.34;97116.88;10465572;28;1837;-47
2022/02/11 20:05:44;;;;;;;;;;;;;;;23.92;25.05;97114.22;10462785;28;2036;-63
2022/02/11 20:10:44;;;;;;;;;;;;;;;23.92;24.91;97114.22;10480029;28;1854;-45
2022/02/11 20:15:45;;;;;;;;;;;;;;;23.91;24.28;97109.97;10458177;28;1981;-49
2022/02/11 20:20:45;;;;;;;;;;;;;;;23.94;24.25;97113.94;10461074;28;1907;-52
2022/02/11 20:25:47;;;;;;;;;;;;;;;23.92;24.30;97118.72;10465940;28;1942;-50
2022/02/11 20:30:51;;;;;;;;;;;;;;;23.94;24.39;97124.53;10472927;28;1829;-49
2022/02/11 20:35:51;;;;;;;;;;;;;;;23.93;24.34;97123.75;10480662;28;1906;-52
2022/02/11 20:40:53;;;;;;;;;;;;;;;23.96;24.33;97133.81;10481116;28;1774;-50
2022/02/11 20:45:54;;;;;;;;;;;;;;;23.93;23.81;97138.84;10461608;28;1863;-56
2022/02/11 20:50:54;;;;;;;;;;;;;;;23.79;22.98;97133.25;10461574;28;1930;-56
2022/02/11 20:55:54;;;;;;;;;;;;;;;23.72;22.72;97143.28;10461680;28;1954;-51
2022/02/11 21:00:55;;;;;;;;;;;;;;;23.72;22.87;97153.88;10460712;28;1823;-58
2022/02/11 21:05:56;;;;;;;;;;;;;;;23.70;22.79;97157.84;10459910;28;1992;-54
2022/02/11 21:10:56;;;;;;;;;;;;;;;23.68;22.48;97158.09;10455751;28;1814;-59
2022/02/11 21:15:56;;;;;;;;;;;;;;;23.69;22.46;97154.41;10460939;28;1941;-52
2022/02/11 21:20:57;;;;;;;;;;;;;;;23.68;22.54;97158.09;10478517;28;1860;-47
2022/02/11 21:25:57;;;;;;;;;;;;;;;23.68;22.27;97160.72;10464954;28;1801;-46
2022/02/11 21:30:57;;;;;;;;;;;;;;;23.69;22.42;97162.34;10474674;28;1792;-50
2022/02/11 21:35:57;;;;;;;;;;;;;;;23.68;22.13;97173.97;10452208;28;1991;-50
2022/02/11 21:40:58;;;;;;;;;;;;;;;23.64;23.67;97158.88;10454323;28;1818;-53
2022/02/11 21:45:58;;;;;;;;;;;;;;;23.62;23.83;97161.78;10459325;28;1871;-65
2022/02/11 21:50:59;;;;;;;;;;;;;;;23.57;24.33;97167.06;10447205;28;1749;-45
2022/02/11 21:55:59;;;;;;;;;;;;;;;23.59;24.65;97164.16;10453164;28;1984;-57
2022/02/11 22:01:00;;;;;;;;;;;;;;;23.55;24.28;97171.81;10452426;28;1806;-46
2022/02/11 22:06:00;;;;;;;;;;;;;;;23.54;24.54;97167.56;10464735;28;1868;-44
2022/02/11 22:11:01;;;;;;;;;;;;;;;23.51;24.16;97173.41;10466593;28;1808;-46
2022/02/11 22:16:01;;;;;;;;;;;;;;;23.46;24.41;97176.00;10471857;28;1894;-44
2022/02/11 22:21:05;;;;;;;;;;;;;;;23.42;24.29;97175.72;10475265;28;1790;-49
2022/02/11 22:26:05;;;;;;;;;;;;;;;23.40;24.53;97171.75;10464019;28;1802;-49
2022/02/11 22:31:06;;;;;;;;;;;;;;;23.29;24.46;97165.56;10462580;28;1821;-46
2022/02/11 22:36:06;;;;;;;;;;;;;;;23.20;24.44;97161.03;10459368;28;1909;-45
2022/02/11 22:41:07;;;;;;;;;;;;;;;23.03;24.35;97165.69;10460447;28;1866;-45
2022/02/11 22:46:07;;;;;;;;;;;;;;;22.93;24.25;97162.97;10458361;28;1817;-45
2022/02/11 22:56:26;;;;;;;;;;;;;;;22.79;24.58;97177.69;10459997;28;1983;-45
2022/02/11 23:01:27;;;;;;;;;;;;;;;22.73;24.26;97170.75;10466492;28;1859;-49
2022/02/11 23:06:27;;;;;;;;;;;;;;;22.65;24.08;97159.59;10461468;28;1747;-47
2022/02/11 23:11:29;;;;;;;;;;;;;;;22.60;24.27;97162.22;10462468;28;1829;-48
2022/02/11 23:16:29;;;;;;;;;;;;;;;22.55;24.04;97154.19;10460964;28;1989;-49
2022/02/11 23:21:30;;;;;;;;;;;;;;;22.51;24.34;97154.94;10465280;28;1899;-48
2022/02/11 23:26:30;;;;;;;;;;;;;;;22.48;24.33;97166.81;10481249;28;1790;-50
2022/02/11 23:31:31;;;;;;;;;;;;;;;22.44;24.22;97163.09;10480172;28;1888;-43
2022/02/11 23:36:31;;;;;;;;;;;;;;;22.41;24.17;97163.59;10477025;28;2012;-44
2022/02/11 23:41:32;;;;;;;;;;;;;;;22.38;24.43;97164.09;10479794;28;1962;-50
2022/02/11 23:46:32;;;;;;;;;;;;;;;22.36;23.91;97162.78;10477135;28;1804;-46
2022/02/11 23:51:33;;;;;;;;;;;;;;;22.34;24.21;97156.94;10479976;28;1833;-49
2022/02/11 23:56:33;;;;;;;;;;;;;;;22.31;23.82;97141.56;10459797;28;1910;-49
